DAL2398 KATL-KJFK
Flight info
| Callsign | DAL2398 |
|---|---|
| Flight time | 1h 37m |
| Altitude | 41000 |
| Route | PHIIL3 HRTWL Q64 SAWED Q108 SIE CAMRN5 |
| Aircraft | A359/H-SDE2E3GHIJ3J4J5LM1ORWXY/LB1D1 |
Departure
| Time | 2026-05-03 20:20 |
|---|---|
| Airport | Hartsfield Jackson Atlanta International Airport (KATL) |
Arrival
| Time | 2026-05-03 21:57 |
|---|---|
| Airport | John F. Kennedy International Airport (KJFK) |
| Time | Latitude | Longitude | Altitude | Speed | Heading |
|---|---|---|---|---|---|
| 2026-05-03 20:15 | 33.63868 | -84.42735 | 1042 ft | 14 kts | 180° |
| 2026-05-03 20:15 | 33.63762 | -84.42734 | 1042 ft | 16 kts | 180° |
| 2026-05-03 20:15 | 33.63666 | -84.42758 | 1042 ft | 13 kts | 201° |
| 2026-05-03 20:15 | 33.63587 | -84.42734 | 1042 ft | 11 kts | 119° |
| 2026-05-03 20:16 | 33.63582 | -84.42633 | 1042 ft | 13 kts | 90° |
| 2026-05-03 20:16 | 33.63582 | -84.42513 | 1042 ft | 16 kts | 90° |
| 2026-05-03 20:16 | 33.63582 | -84.42371 | 1042 ft | 18 kts | 90° |
| 2026-05-03 20:16 | 33.63582 | -84.42210 | 1043 ft | 20 kts | 90° |
| 2026-05-03 20:17 | 33.63583 | -84.42031 | 1042 ft | 23 kts | 90° |
| 2026-05-03 20:17 | 33.63583 | -84.41831 | 1041 ft | 25 kts | 90° |
| 2026-05-03 20:17 | 33.63582 | -84.41614 | 1041 ft | 27 kts | 90° |
| 2026-05-03 20:17 | 33.63583 | -84.41382 | 1041 ft | 29 kts | 90° |
| 2026-05-03 20:18 | 33.63583 | -84.41136 | 1041 ft | 30 kts | 90° |
| 2026-05-03 20:18 | 33.63580 | -84.40963 | 1041 ft | 8 kts | 102° |
| 2026-05-03 20:18 | 33.63576 | -84.40948 | 1041 ft | 0 kts | 111° |
| 2026-05-03 20:19 | 33.63575 | -84.40948 | 1041 ft | 0 kts | 112° |
| 2026-05-03 20:19 | 33.63500 | -84.40918 | 1042 ft | 15 kts | 199° |
| 2026-05-03 20:19 | 33.63471 | -84.41025 | 1042 ft | 15 kts | 270° |
| 2026-05-03 20:19 | 33.63471 | -84.41215 | 1040 ft | 47 kts | 271° |
| 2026-05-03 20:20 | 33.63472 | -84.41899 | 1043 ft | 115 kts | 270° |
| 2026-05-03 20:20 | 33.63471 | -84.43067 | 1144 ft | 161 kts | 270° |
| 2026-05-03 20:20 | 33.63477 | -84.44401 | 1918 ft | 157 kts | 271° |
| 2026-05-03 20:20 | 33.63461 | -84.45743 | 2546 ft | 171 kts | 269° |
| 2026-05-03 20:21 | 33.63315 | -84.47275 | 2930 ft | 196 kts | 260° |
| 2026-05-03 20:21 | 33.62900 | -84.48894 | 3407 ft | 212 kts | 250° |
| 2026-05-03 20:21 | 33.62247 | -84.50566 | 3853 ft | 232 kts | 244° |
| 2026-05-03 20:21 | 33.61471 | -84.52370 | 4299 ft | 251 kts | 244° |
| 2026-05-03 20:22 | 33.60651 | -84.54251 | 5173 ft | 256 kts | 244° |
| 2026-05-03 20:22 | 33.59782 | -84.56138 | 6047 ft | 263 kts | 239° |
| 2026-05-03 20:22 | 33.58492 | -84.57730 | 6839 ft | 274 kts | 215° |
| 2026-05-03 20:22 | 33.56678 | -84.58482 | 7739 ft | 282 kts | 188° |
| 2026-05-03 20:23 | 33.54703 | -84.58567 | 8701 ft | 287 kts | 182° |
| 2026-05-03 20:23 | 33.52705 | -84.58534 | 9663 ft | 291 kts | 181° |
| 2026-05-03 20:23 | 33.50671 | -84.58498 | 10572 ft | 294 kts | 182° |
| 2026-05-03 20:23 | 33.48621 | -84.58168 | 11420 ft | 303 kts | 165° |
| 2026-05-03 20:24 | 33.46767 | -84.56934 | 12284 ft | 311 kts | 140° |
| 2026-05-03 20:24 | 33.45461 | -84.54796 | 12802 ft | 331 kts | 113° |
| 2026-05-03 20:24 | 33.45058 | -84.52021 | 13186 ft | 351 kts | 85° |
| 2026-05-03 20:24 | 33.45396 | -84.49053 | 13560 ft | 370 kts | 83° |
| 2026-05-03 20:25 | 33.45543 | -84.45916 | 14064 ft | 384 kts | 88° |
| 2026-05-03 20:25 | 33.45582 | -84.42689 | 14695 ft | 391 kts | 89° |
| 2026-05-03 20:25 | 33.45590 | -84.39407 | 15398 ft | 397 kts | 90° |
| 2026-05-03 20:25 | 33.45591 | -84.36083 | 16140 ft | 402 kts | 89° |
| 2026-05-03 20:26 | 33.45707 | -84.33889 | 16587 ft | 405 kts | 82° |
| 2026-05-03 20:26 | 33.46323 | -84.30589 | 17303 ft | 408 kts | 73° |
| 2026-05-03 20:26 | 33.47146 | -84.27321 | 17968 ft | 414 kts | 72° |
| 2026-05-03 20:26 | 33.48004 | -84.24001 | 18603 ft | 420 kts | 72° |
| 2026-05-03 20:27 | 33.48870 | -84.20630 | 19227 ft | 425 kts | 72° |
| 2026-05-03 20:27 | 33.49737 | -84.17234 | 19891 ft | 429 kts | 72° |
| 2026-05-03 20:27 | 33.50608 | -84.13801 | 20557 ft | 433 kts | 72° |
| 2026-05-03 20:27 | 33.51458 | -84.10441 | 21189 ft | 437 kts | 72° |
| 2026-05-03 20:28 | 33.52344 | -84.06933 | 21812 ft | 442 kts | 72° |
| 2026-05-03 20:28 | 33.53238 | -84.03387 | 22468 ft | 447 kts | 72° |
| 2026-05-03 20:28 | 33.54139 | -83.99803 | 23143 ft | 451 kts | 72° |
| 2026-05-03 20:28 | 33.55048 | -83.96185 | 23779 ft | 455 kts | 72° |
| 2026-05-03 20:29 | 33.55965 | -83.92528 | 24274 ft | 461 kts | 72° |
| 2026-05-03 20:29 | 33.56896 | -83.88815 | 24697 ft | 468 kts | 72° |
| 2026-05-03 20:29 | 33.57839 | -83.85054 | 25149 ft | 474 kts | 72° |
| 2026-05-03 20:29 | 33.58969 | -83.81323 | 25631 ft | 479 kts | 65° |
| 2026-05-03 20:30 | 33.60328 | -83.77654 | 26141 ft | 483 kts | 64° |
| 2026-05-03 20:30 | 33.61735 | -83.73968 | 26604 ft | 489 kts | 64° |
| 2026-05-03 20:30 | 33.63157 | -83.70245 | 27094 ft | 494 kts | 64° |
| 2026-05-03 20:30 | 33.64576 | -83.66505 | 27572 ft | 499 kts | 64° |
| 2026-05-03 20:31 | 33.65793 | -83.62585 | 28020 ft | 505 kts | 73° |
| 2026-05-03 20:31 | 33.66651 | -83.58475 | 28483 ft | 510 kts | 77° |
| 2026-05-03 20:31 | 33.67432 | -83.54296 | 28941 ft | 515 kts | 77° |
| 2026-05-03 20:31 | 33.68213 | -83.50074 | 29322 ft | 522 kts | 77° |
| 2026-05-03 20:32 | 33.69005 | -83.45799 | 29707 ft | 527 kts | 77° |
| 2026-05-03 20:32 | 33.69806 | -83.41490 | 30161 ft | 531 kts | 77° |
| 2026-05-03 20:32 | 33.70614 | -83.37138 | 30515 ft | 536 kts | 77° |
| 2026-05-03 20:32 | 33.71426 | -83.32757 | 30887 ft | 540 kts | 77° |
| 2026-05-03 20:33 | 33.72245 | -83.28338 | 31225 ft | 544 kts | 77° |
| 2026-05-03 20:33 | 33.73067 | -83.23887 | 31575 ft | 547 kts | 77° |
| 2026-05-03 20:33 | 33.73896 | -83.19412 | 31892 ft | 551 kts | 77° |
| 2026-05-03 20:33 | 33.74975 | -83.14989 | 32180 ft | 553 kts | 68° |
| 2026-05-03 20:34 | 33.76653 | -83.10823 | 32429 ft | 555 kts | 57° |
| 2026-05-03 20:34 | 33.78663 | -83.06859 | 32829 ft | 555 kts | 55° |
| 2026-05-03 20:34 | 33.80711 | -83.02925 | 33148 ft | 557 kts | 55° |
| 2026-05-03 20:34 | 33.82777 | -82.98956 | 33417 ft | 561 kts | 55° |
| 2026-05-03 20:35 | 33.84844 | -82.94967 | 33722 ft | 563 kts | 55° |
| 2026-05-03 20:35 | 33.86910 | -82.90969 | 34146 ft | 563 kts | 55° |
| 2026-05-03 20:35 | 33.88974 | -82.86965 | 34475 ft | 563 kts | 55° |
| 2026-05-03 20:35 | 33.91037 | -82.82958 | 34793 ft | 564 kts | 55° |
| 2026-05-03 20:36 | 33.93101 | -82.78942 | 35090 ft | 564 kts | 56° |
| 2026-05-03 20:36 | 33.95168 | -82.74916 | 35307 ft | 567 kts | 55° |
| 2026-05-03 20:36 | 33.97248 | -82.70861 | 35496 ft | 570 kts | 55° |
| 2026-05-03 20:36 | 33.99334 | -82.66792 | 35811 ft | 570 kts | 55° |
| 2026-05-03 20:37 | 34.01401 | -82.62722 | 36263 ft | 567 kts | 56° |
| 2026-05-03 20:37 | 34.03447 | -82.58664 | 36662 ft | 565 kts | 56° |
| 2026-05-03 20:37 | 34.05491 | -82.54609 | 36931 ft | 566 kts | 56° |
| 2026-05-03 20:37 | 34.07540 | -82.50545 | 37155 ft | 567 kts | 56° |
| 2026-05-03 20:38 | 34.09590 | -82.46474 | 37430 ft | 568 kts | 56° |
| 2026-05-03 20:38 | 34.11640 | -82.42402 | 37701 ft | 568 kts | 56° |
| 2026-05-03 20:38 | 34.13691 | -82.38323 | 37907 ft | 570 kts | 56° |
| 2026-05-03 20:39 | 34.17832 | -82.30076 | 38160 ft | 576 kts | 56° |
| 2026-05-03 20:39 | 34.19908 | -82.25934 | 38449 ft | 575 kts | 56° |
| 2026-05-03 20:39 | 34.21977 | -82.21800 | 38701 ft | 576 kts | 56° |
| 2026-05-03 20:39 | 34.24048 | -82.17659 | 38984 ft | 574 kts | 56° |
| 2026-05-03 20:40 | 34.26106 | -82.13545 | 39329 ft | 570 kts | 56° |
| 2026-05-03 20:40 | 34.28166 | -82.09453 | 39586 ft | 569 kts | 56° |
| 2026-05-03 20:40 | 34.30227 | -82.05362 | 39768 ft | 569 kts | 56° |
| 2026-05-03 20:40 | 34.32285 | -82.01273 | 39936 ft | 569 kts | 56° |
| 2026-05-03 20:41 | 34.34340 | -81.97187 | 40131 ft | 569 kts | 56° |
| 2026-05-03 20:41 | 34.36392 | -81.93100 | 40311 ft | 568 kts | 56° |
| 2026-05-03 20:41 | 34.38442 | -81.89010 | 40496 ft | 568 kts | 56° |
| 2026-05-03 20:41 | 34.40464 | -81.84970 | 40674 ft | 568 kts | 56° |
| 2026-05-03 20:42 | 34.42506 | -81.80885 | 40844 ft | 567 kts | 56° |
| 2026-05-03 20:42 | 34.44548 | -81.76797 | 40995 ft | 567 kts | 56° |
| 2026-05-03 20:42 | 34.46589 | -81.72705 | 41126 ft | 568 kts | 56° |
| 2026-05-03 20:43 | 34.50662 | -81.64523 | 41115 ft | 566 kts | 56° |
| 2026-05-03 20:43 | 34.54730 | -81.56334 | 41126 ft | 568 kts | 56° |
| 2026-05-03 20:44 | 34.58804 | -81.48116 | 41120 ft | 568 kts | 56° |
| 2026-05-03 20:44 | 34.62872 | -81.39887 | 41120 ft | 568 kts | 56° |
| 2026-05-03 20:45 | 34.66934 | -81.31651 | 41118 ft | 568 kts | 56° |
| 2026-05-03 20:45 | 34.70989 | -81.23409 | 41119 ft | 568 kts | 56° |
| 2026-05-03 20:46 | 34.75041 | -81.15157 | 41118 ft | 568 kts | 56° |
| 2026-05-03 20:46 | 34.79062 | -81.06881 | 41112 ft | 570 kts | 59° |
| 2026-05-03 20:47 | 34.82491 | -80.98168 | 41103 ft | 571 kts | 63° |
| 2026-05-03 20:47 | 34.85757 | -80.89360 | 41105 ft | 571 kts | 64° |
| 2026-05-03 20:48 | 34.88993 | -80.80505 | 41110 ft | 573 kts | 64° |
| 2026-05-03 20:48 | 34.92235 | -80.71636 | 41120 ft | 572 kts | 64° |
| 2026-05-03 20:49 | 34.95473 | -80.62779 | 41128 ft | 572 kts | 64° |
| 2026-05-03 20:49 | 34.98707 | -80.53923 | 41100 ft | 572 kts | 64° |
| 2026-05-03 20:50 | 35.01935 | -80.45057 | 41105 ft | 573 kts | 64° |
| 2026-05-03 20:50 | 35.05168 | -80.36151 | 41114 ft | 574 kts | 64° |
| 2026-05-03 20:51 | 35.08395 | -80.27234 | 41107 ft | 574 kts | 64° |
| 2026-05-03 20:51 | 35.11616 | -80.18310 | 41118 ft | 574 kts | 64° |
| 2026-05-03 20:52 | 35.14828 | -80.09384 | 41101 ft | 574 kts | 64° |
| 2026-05-03 20:52 | 35.18037 | -80.00443 | 41114 ft | 575 kts | 64° |
| 2026-05-03 20:53 | 35.21224 | -79.91552 | 41115 ft | 575 kts | 64° |
| 2026-05-03 20:53 | 35.24425 | -79.82603 | 41103 ft | 575 kts | 64° |
| 2026-05-03 20:54 | 35.27627 | -79.73631 | 41100 ft | 576 kts | 64° |
| 2026-05-03 20:54 | 35.32427 | -79.60123 | 41116 ft | 576 kts | 64° |
| 2026-05-03 20:55 | 35.35611 | -79.51131 | 41112 ft | 575 kts | 64° |
| 2026-05-03 20:55 | 35.38786 | -79.42139 | 41093 ft | 575 kts | 64° |
| 2026-05-03 20:56 | 35.41963 | -79.33119 | 41113 ft | 577 kts | 64° |
| 2026-05-03 20:56 | 35.45141 | -79.24067 | 41108 ft | 578 kts | 65° |
| 2026-05-03 20:57 | 35.48308 | -79.15017 | 41100 ft | 578 kts | 65° |
| 2026-05-03 20:57 | 35.51471 | -79.05957 | 41097 ft | 578 kts | 65° |
| 2026-05-03 20:58 | 35.54630 | -78.96877 | 41113 ft | 579 kts | 65° |
| 2026-05-03 20:58 | 35.57791 | -78.87770 | 41102 ft | 580 kts | 65° |
| 2026-05-03 20:59 | 35.60942 | -78.78660 | 41097 ft | 580 kts | 65° |
| 2026-05-03 20:59 | 35.64092 | -78.69539 | 41099 ft | 580 kts | 65° |
| 2026-05-03 21:00 | 35.66191 | -78.63425 | 41089 ft | 581 kts | 65° |
| 2026-05-03 21:00 | 35.70354 | -78.51264 | 41126 ft | 583 kts | 65° |
| 2026-05-03 21:01 | 35.73492 | -78.42074 | 41089 ft | 580 kts | 65° |
| 2026-05-03 21:01 | 35.76613 | -78.32931 | 41092 ft | 580 kts | 65° |
| 2026-05-03 21:02 | 35.79724 | -78.23771 | 41100 ft | 580 kts | 65° |
| 2026-05-03 21:02 | 35.82827 | -78.14611 | 41097 ft | 580 kts | 65° |
| 2026-05-03 21:03 | 35.85925 | -78.05437 | 41094 ft | 579 kts | 65° |
| 2026-05-03 21:03 | 35.89015 | -77.96265 | 41107 ft | 579 kts | 65° |
| 2026-05-03 21:04 | 35.92099 | -77.87078 | 41108 ft | 580 kts | 65° |
| 2026-05-03 21:04 | 35.95182 | -77.77871 | 41096 ft | 580 kts | 65° |
| 2026-05-03 21:05 | 35.98898 | -77.69191 | 41094 ft | 571 kts | 48° |
| 2026-05-03 21:05 | 36.04006 | -77.61754 | 41092 ft | 566 kts | 42° |
| 2026-05-03 21:06 | 36.09349 | -77.54601 | 41094 ft | 567 kts | 41° |
| 2026-05-03 21:06 | 36.14730 | -77.47466 | 41096 ft | 566 kts | 41° |
| 2026-05-03 21:07 | 36.20069 | -77.40314 | 41091 ft | 565 kts | 41° |
| 2026-05-03 21:07 | 36.24526 | -77.34301 | 41086 ft | 566 kts | 41° |
| 2026-05-03 21:08 | 36.29838 | -77.27114 | 41081 ft | 565 kts | 42° |
| 2026-05-03 21:08 | 36.35485 | -77.20421 | 41084 ft | 559 kts | 36° |
| 2026-05-03 21:09 | 36.41243 | -77.13941 | 41079 ft | 559 kts | 35° |
| 2026-05-03 21:09 | 36.47029 | -77.07483 | 41091 ft | 559 kts | 35° |
| 2026-05-03 21:10 | 36.52814 | -77.01004 | 41122 ft | 559 kts | 35° |
| 2026-05-03 21:10 | 36.58575 | -76.94518 | 41084 ft | 558 kts | 36° |
| 2026-05-03 21:11 | 36.64275 | -76.88054 | 41082 ft | 558 kts | 36° |
| 2026-05-03 21:11 | 36.69995 | -76.81568 | 41090 ft | 558 kts | 36° |
| 2026-05-03 21:12 | 36.75741 | -76.75056 | 41102 ft | 558 kts | 36° |
| 2026-05-03 21:12 | 36.81486 | -76.68534 | 41092 ft | 557 kts | 36° |
| 2026-05-03 21:13 | 36.87216 | -76.62017 | 41079 ft | 557 kts | 36° |
| 2026-05-03 21:13 | 36.92943 | -76.55490 | 41081 ft | 557 kts | 36° |
| 2026-05-03 21:14 | 36.98662 | -76.48956 | 41055 ft | 556 kts | 36° |
| 2026-05-03 21:14 | 37.04376 | -76.42415 | 41072 ft | 557 kts | 36° |
| 2026-05-03 21:15 | 37.10090 | -76.35860 | 41066 ft | 557 kts | 36° |
| 2026-05-03 21:15 | 37.15804 | -76.29291 | 41115 ft | 557 kts | 36° |
| 2026-05-03 21:16 | 37.21506 | -76.22722 | 41070 ft | 556 kts | 36° |
| 2026-05-03 21:16 | 37.27206 | -76.16158 | 41080 ft | 556 kts | 36° |
| 2026-05-03 21:17 | 37.31946 | -76.10689 | 41082 ft | 557 kts | 36° |
| 2026-05-03 21:17 | 37.38570 | -76.03017 | 41090 ft | 557 kts | 37° |
| 2026-05-03 21:18 | 37.44291 | -75.96367 | 41077 ft | 556 kts | 37° |
| 2026-05-03 21:18 | 37.49975 | -75.89745 | 41067 ft | 556 kts | 37° |
| 2026-05-03 21:19 | 37.56033 | -75.83885 | 41065 ft | 544 kts | 25° |
| 2026-05-03 21:19 | 37.62474 | -75.78898 | 41064 ft | 542 kts | 23° |
| 2026-05-03 21:20 | 37.68966 | -75.74054 | 41063 ft | 542 kts | 23° |
| 2026-05-03 21:20 | 37.75417 | -75.69243 | 41064 ft | 543 kts | 23° |
| 2026-05-03 21:21 | 37.81908 | -75.64369 | 41059 ft | 542 kts | 23° |
| 2026-05-03 21:21 | 37.88347 | -75.59343 | 41055 ft | 546 kts | 27° |
| 2026-05-03 21:22 | 37.94586 | -75.53827 | 41054 ft | 548 kts | 28° |
| 2026-05-03 21:22 | 38.00809 | -75.48240 | 41065 ft | 547 kts | 28° |
| 2026-05-03 21:23 | 38.07050 | -75.42737 | 41048 ft | 545 kts | 27° |
| 2026-05-03 21:23 | 38.13416 | -75.37502 | 41045 ft | 544 kts | 25° |
| 2026-05-03 21:24 | 38.19826 | -75.32364 | 41068 ft | 545 kts | 25° |
| 2026-05-03 21:24 | 38.26521 | -75.28220 | 41037 ft | 525 kts | 8° |
| 2026-05-03 21:25 | 38.33570 | -75.26260 | 41037 ft | 516 kts | 1° |
| 2026-05-03 21:25 | 38.40638 | -75.24761 | 41038 ft | 515 kts | 0° |
| 2026-05-03 21:26 | 38.47712 | -75.23330 | 41041 ft | 515 kts | 1° |
| 2026-05-03 21:26 | 38.54782 | -75.21875 | 41038 ft | 515 kts | 1° |
| 2026-05-03 21:27 | 38.61857 | -75.20394 | 41041 ft | 515 kts | 1° |
| 2026-05-03 21:27 | 38.68884 | -75.18351 | 40717 ft | 527 kts | 13° |
| 2026-05-03 21:28 | 38.72245 | -75.16358 | 40479 ft | 538 kts | 24° |
| 2026-05-03 21:28 | 38.75375 | -75.13697 | 39915 ft | 544 kts | 30° |
| 2026-05-03 21:28 | 38.78419 | -75.10761 | 39139 ft | 549 kts | 31° |
| 2026-05-03 21:28 | 38.81452 | -75.07775 | 38341 ft | 552 kts | 31° |
| 2026-05-03 21:29 | 38.84499 | -75.04770 | 37591 ft | 552 kts | 31° |
| 2026-05-03 21:29 | 38.87532 | -75.01779 | 36922 ft | 548 kts | 31° |
| 2026-05-03 21:29 | 38.90547 | -74.98805 | 36236 ft | 545 kts | 31° |
| 2026-05-03 21:29 | 38.93530 | -74.95863 | 35539 ft | 543 kts | 31° |
| 2026-05-03 21:30 | 38.96521 | -74.92913 | 34836 ft | 540 kts | 31° |
| 2026-05-03 21:30 | 38.99493 | -74.89978 | 34151 ft | 537 kts | 31° |
| 2026-05-03 21:30 | 39.02450 | -74.87056 | 33328 ft | 535 kts | 30° |
| 2026-05-03 21:30 | 39.05395 | -74.84145 | 32443 ft | 534 kts | 31° |
| 2026-05-03 21:31 | 39.08334 | -74.81237 | 31526 ft | 532 kts | 31° |
| 2026-05-03 21:31 | 39.11261 | -74.78315 | 30564 ft | 533 kts | 32° |
| 2026-05-03 21:31 | 39.14117 | -74.75248 | 29590 ft | 533 kts | 34° |
| 2026-05-03 21:31 | 39.16921 | -74.72169 | 28823 ft | 527 kts | 34° |
| 2026-05-03 21:32 | 39.19698 | -74.69128 | 28183 ft | 518 kts | 34° |
| 2026-05-03 21:32 | 39.22393 | -74.66189 | 27563 ft | 511 kts | 33° |
| 2026-05-03 21:32 | 39.25123 | -74.63220 | 26945 ft | 504 kts | 34° |
| 2026-05-03 21:32 | 39.27777 | -74.60336 | 26315 ft | 498 kts | 34° |
| 2026-05-03 21:33 | 39.30406 | -74.57479 | 25719 ft | 491 kts | 33° |
| 2026-05-03 21:33 | 39.33008 | -74.54651 | 25127 ft | 485 kts | 33° |
| 2026-05-03 21:33 | 39.35514 | -74.51926 | 24537 ft | 479 kts | 33° |
| 2026-05-03 21:33 | 39.38047 | -74.49169 | 23927 ft | 474 kts | 33° |
| 2026-05-03 21:34 | 39.40550 | -74.46443 | 23316 ft | 468 kts | 33° |
| 2026-05-03 21:34 | 39.43029 | -74.43746 | 22720 ft | 461 kts | 33° |
| 2026-05-03 21:34 | 39.45467 | -74.41085 | 22093 ft | 455 kts | 33° |
| 2026-05-03 21:34 | 39.47857 | -74.38470 | 21598 ft | 446 kts | 33° |
| 2026-05-03 21:35 | 39.50176 | -74.35931 | 21054 ft | 439 kts | 33° |
| 2026-05-03 21:35 | 39.52521 | -74.33363 | 20482 ft | 433 kts | 33° |
| 2026-05-03 21:35 | 39.54808 | -74.30859 | 19909 ft | 428 kts | 33° |
| 2026-05-03 21:35 | 39.57067 | -74.28383 | 19381 ft | 424 kts | 33° |
| 2026-05-03 21:36 | 39.59288 | -74.25953 | 19115 ft | 424 kts | 33° |
| 2026-05-03 21:36 | 39.61578 | -74.23446 | 19064 ft | 425 kts | 33° |
| 2026-05-03 21:36 | 39.63808 | -74.20995 | 19058 ft | 425 kts | 34° |
| 2026-05-03 21:36 | 39.66059 | -74.18517 | 19057 ft | 425 kts | 34° |
| 2026-05-03 21:37 | 39.68339 | -74.16007 | 19055 ft | 425 kts | 33° |
| 2026-05-03 21:37 | 39.70597 | -74.13522 | 19052 ft | 425 kts | 34° |
| 2026-05-03 21:37 | 39.72807 | -74.11079 | 18938 ft | 414 kts | 34° |
| 2026-05-03 21:37 | 39.74973 | -74.08670 | 18152 ft | 398 kts | 33° |
| 2026-05-03 21:38 | 39.77078 | -74.06343 | 16598 ft | 399 kts | 34° |
| 2026-05-03 21:38 | 39.79211 | -74.03996 | 15064 ft | 404 kts | 34° |
| 2026-05-03 21:38 | 39.81316 | -74.01667 | 14372 ft | 385 kts | 35° |
| 2026-05-03 21:38 | 39.83245 | -73.99533 | 14154 ft | 354 kts | 33° |
| 2026-05-03 21:39 | 39.85133 | -73.97754 | 13955 ft | 333 kts | 29° |
| 2026-05-03 21:39 | 39.87102 | -73.96051 | 13794 ft | 345 kts | 21° |
| 2026-05-03 21:39 | 39.89364 | -73.95020 | 13734 ft | 346 kts | 2° |
| 2026-05-03 21:39 | 39.91764 | -73.95006 | 13735 ft | 349 kts | 355° |
| 2026-05-03 21:40 | 39.94207 | -73.94488 | 13865 ft | 360 kts | 10° |
| 2026-05-03 21:40 | 39.96499 | -73.93441 | 13400 ft | 343 kts | 17° |
| 2026-05-03 21:40 | 39.98662 | -73.92105 | 12381 ft | 348 kts | 20° |
| 2026-05-03 21:40 | 40.00841 | -73.90700 | 11735 ft | 350 kts | 21° |
| 2026-05-03 21:41 | 40.02974 | -73.89189 | 11130 ft | 350 kts | 29° |
| 2026-05-03 21:41 | 40.04770 | -73.87039 | 10698 ft | 351 kts | 45° |
| 2026-05-03 21:41 | 40.06272 | -73.84583 | 10390 ft | 341 kts | 47° |
| 2026-05-03 21:41 | 40.07655 | -73.82211 | 10081 ft | 316 kts | 47° |
| 2026-05-03 21:42 | 40.08930 | -73.79990 | 9769 ft | 297 kts | 47° |
| 2026-05-03 21:42 | 40.10148 | -73.77858 | 9440 ft | 291 kts | 47° |
| 2026-05-03 21:42 | 40.11357 | -73.75745 | 9099 ft | 289 kts | 47° |
| 2026-05-03 21:42 | 40.12556 | -73.73642 | 8781 ft | 288 kts | 47° |
| 2026-05-03 21:43 | 40.13750 | -73.71551 | 8449 ft | 287 kts | 47° |
| 2026-05-03 21:43 | 40.14947 | -73.69453 | 8160 ft | 288 kts | 47° |
| 2026-05-03 21:43 | 40.16142 | -73.67366 | 7842 ft | 285 kts | 47° |
| 2026-05-03 21:43 | 40.17324 | -73.65300 | 7531 ft | 283 kts | 47° |
| 2026-05-03 21:44 | 40.18499 | -73.63237 | 7238 ft | 282 kts | 47° |
| 2026-05-03 21:44 | 40.19664 | -73.61178 | 6923 ft | 281 kts | 47° |
| 2026-05-03 21:44 | 40.20826 | -73.59124 | 6622 ft | 280 kts | 47° |
| 2026-05-03 21:44 | 40.21980 | -73.57080 | 6308 ft | 279 kts | 47° |
| 2026-05-03 21:45 | 40.23196 | -73.55127 | 6011 ft | 274 kts | 40° |
| 2026-05-03 21:45 | 40.24538 | -73.53373 | 5687 ft | 272 kts | 38° |
| 2026-05-03 21:45 | 40.25878 | -73.51688 | 5373 ft | 270 kts | 38° |
| 2026-05-03 21:45 | 40.27377 | -73.50217 | 5064 ft | 262 kts | 22° |
| 2026-05-03 21:46 | 40.29003 | -73.49194 | 4748 ft | 258 kts | 18° |
| 2026-05-03 21:46 | 40.30626 | -73.48270 | 4437 ft | 257 kts | 17° |
| 2026-05-03 21:46 | 40.32265 | -73.47341 | 4126 ft | 256 kts | 17° |
| 2026-05-03 21:46 | 40.33901 | -73.46419 | 3810 ft | 255 kts | 17° |
| 2026-05-03 21:47 | 40.35532 | -73.45502 | 3498 ft | 255 kts | 17° |
| 2026-05-03 21:47 | 40.37158 | -73.44589 | 3204 ft | 254 kts | 18° |
| 2026-05-03 21:47 | 40.38776 | -73.43687 | 3027 ft | 253 kts | 18° |
| 2026-05-03 21:47 | 40.40478 | -73.43107 | 3012 ft | 246 kts | 356° |
| 2026-05-03 21:48 | 40.42086 | -73.43518 | 3021 ft | 237 kts | 338° |
| 2026-05-03 21:48 | 40.43586 | -73.44384 | 3017 ft | 235 kts | 328° |
| 2026-05-03 21:48 | 40.44950 | -73.45419 | 3003 ft | 218 kts | 326° |
| 2026-05-03 21:48 | 40.46161 | -73.46418 | 2995 ft | 200 kts | 324° |
| 2026-05-03 21:49 | 40.47276 | -73.47376 | 2998 ft | 183 kts | 323° |
| 2026-05-03 21:49 | 40.48212 | -73.48199 | 2997 ft | 173 kts | 322° |
| 2026-05-03 21:49 | 40.48914 | -73.48831 | 3027 ft | 181 kts | 322° |
| 2026-05-03 21:49 | 40.49897 | -73.49720 | 3008 ft | 162 kts | 322° |
| 2026-05-03 21:50 | 40.50768 | -73.50508 | 2994 ft | 144 kts | 322° |
| 2026-05-03 21:50 | 40.51575 | -73.51246 | 3004 ft | 140 kts | 321° |
| 2026-05-03 21:50 | 40.52102 | -73.51732 | 2999 ft | 140 kts | 322° |
| 2026-05-03 21:50 | 40.52902 | -73.52468 | 2998 ft | 140 kts | 321° |
| 2026-05-03 21:51 | 40.53702 | -73.53207 | 2995 ft | 140 kts | 321° |
| 2026-05-03 21:51 | 40.54372 | -73.54130 | 3000 ft | 139 kts | 306° |
| 2026-05-03 21:51 | 40.54920 | -73.55177 | 2999 ft | 139 kts | 303° |
| 2026-05-03 21:51 | 40.55437 | -73.56252 | 3004 ft | 139 kts | 302° |
| 2026-05-03 21:52 | 40.55938 | -73.57342 | 3002 ft | 139 kts | 301° |
| 2026-05-03 21:52 | 40.56433 | -73.58435 | 2997 ft | 139 kts | 301° |
| 2026-05-03 21:52 | 40.56933 | -73.59530 | 2946 ft | 140 kts | 301° |
| 2026-05-03 21:52 | 40.57436 | -73.60625 | 2769 ft | 139 kts | 301° |
| 2026-05-03 21:53 | 40.57931 | -73.61717 | 2548 ft | 139 kts | 301° |
| 2026-05-03 21:53 | 40.58422 | -73.62802 | 2371 ft | 139 kts | 301° |
| 2026-05-03 21:53 | 40.58917 | -73.63894 | 2165 ft | 139 kts | 301° |
| 2026-05-03 21:53 | 40.59413 | -73.64985 | 1987 ft | 139 kts | 301° |
| 2026-05-03 21:54 | 40.59899 | -73.66058 | 1783 ft | 137 kts | 301° |
| 2026-05-03 21:54 | 40.60386 | -73.67132 | 1585 ft | 135 kts | 301° |
| 2026-05-03 21:54 | 40.60853 | -73.68163 | 1417 ft | 126 kts | 301° |
| 2026-05-03 21:54 | 40.61296 | -73.69140 | 1255 ft | 124 kts | 301° |
| 2026-05-03 21:55 | 40.61739 | -73.70118 | 1067 ft | 126 kts | 301° |
| 2026-05-03 21:55 | 40.62195 | -73.71106 | 858 ft | 126 kts | 302° |
| 2026-05-03 21:55 | 40.62657 | -73.72095 | 773 ft | 129 kts | 297° |
| 2026-05-03 21:55 | 40.63094 | -73.73122 | 590 ft | 128 kts | 302° |
| 2026-05-03 21:56 | 40.63552 | -73.74128 | 420 ft | 128 kts | 304° |
| 2026-05-03 21:56 | 40.64018 | -73.75138 | 241 ft | 129 kts | 301° |
| 2026-05-03 21:56 | 40.64460 | -73.76134 | 90 ft | 125 kts | 303° |
| 2026-05-03 21:56 | 40.64894 | -73.77086 | 34 ft | 115 kts | 303° |
| 2026-05-03 21:57 | 40.65273 | -73.77912 | 30 ft | 92 kts | 301° |
| 2026-05-03 21:57 | 40.65518 | -73.78452 | 28 ft | 51 kts | 300° |
| 2026-05-03 21:57 | 40.65596 | -73.78703 | 27 ft | 14 kts | 240° |
| 2026-05-03 21:57 | 40.65516 | -73.78716 | 26 ft | 14 kts | 133° |
| 2026-05-03 21:58 | 40.65458 | -73.78603 | 29 ft | 15 kts | 126° |
| 2026-05-03 21:58 | 40.65375 | -73.78519 | 30 ft | 16 kts | 166° |
| 2026-05-03 21:58 | 40.65302 | -73.78605 | 31 ft | 15 kts | 242° |
| 2026-05-03 21:58 | 40.65251 | -73.78727 | 30 ft | 16 kts | 240° |
| 2026-05-03 21:59 | 40.65220 | -73.78830 | 30 ft | 12 kts | 255° |
| 2026-05-03 21:59 | 40.65155 | -73.78903 | 30 ft | 15 kts | 192° |
| 2026-05-03 21:59 | 40.65018 | -73.78887 | 30 ft | 19 kts | 150° |
| 2026-05-03 21:59 | 40.64993 | -73.78760 | 30 ft | 12 kts | 82° |